LAN411 SUMU-SCEL
Flight info
| Callsign | LAN411 |
|---|---|
| Flight time | N/A |
| Altitude | 30000 |
| Route | SUMU/25 DAGUS UL405 TOSOR UT687 UMKAL UMKAL7C |
| Aircraft | A320/M-SDE3FGHIRWY/LB1 |
Departure
| Time | 2026-04-25 23:18 |
|---|---|
| Airport | Carrasco General Cesáreo L. Berisso International Airport (SUMU) |
Arrival
| Time | N/A |
|---|---|
| Airport | Comodoro Arturo Merino Benítez International Airport (SCEL) |
| Time | Latitude | Longitude | Altitude | Speed | Heading |
|---|---|---|---|---|---|
| 2026-04-25 22:53 | -34.83620 | -56.01802 | 82 ft | 0 kts | 144° |
| 2026-04-25 23:09 | -34.83611 | -56.01809 | 87 ft | 4 kts | 144° |
| 2026-04-25 23:10 | -34.83590 | -56.01828 | 86 ft | 4 kts | 143° |
| 2026-04-25 23:10 | -34.83569 | -56.01846 | 82 ft | 2 kts | 144° |
| 2026-04-25 23:10 | -34.83554 | -56.01865 | 82 ft | 4 kts | 90° |
| 2026-04-25 23:10 | -34.83565 | -56.01887 | 86 ft | 4 kts | 41° |
| 2026-04-25 23:11 | -34.83578 | -56.01903 | 82 ft | 0 kts | 53° |
| 2026-04-25 23:13 | -34.83577 | -56.01900 | 82 ft | 2 kts | 53° |
| 2026-04-25 23:13 | -34.83550 | -56.01856 | 82 ft | 8 kts | 53° |
| 2026-04-25 23:14 | -34.83512 | -56.01793 | 82 ft | 10 kts | 53° |
| 2026-04-25 23:14 | -34.83446 | -56.01766 | 82 ft | 12 kts | 334° |
| 2026-04-25 23:14 | -34.83372 | -56.01828 | 85 ft | 14 kts | 325° |
| 2026-04-25 23:14 | -34.83283 | -56.01829 | 87 ft | 15 kts | 45° |
| 2026-04-25 23:15 | -34.83214 | -56.01717 | 83 ft | 17 kts | 53° |
| 2026-04-25 23:15 | -34.83137 | -56.01592 | 85 ft | 19 kts | 53° |
| 2026-04-25 23:15 | -34.83053 | -56.01454 | 83 ft | 21 kts | 53° |
| 2026-04-25 23:15 | -34.82961 | -56.01303 | 83 ft | 23 kts | 53° |
| 2026-04-25 23:16 | -34.82868 | -56.01155 | 83 ft | 18 kts | 41° |
| 2026-04-25 23:16 | -34.82742 | -56.01153 | 84 ft | 19 kts | 338° |
| 2026-04-25 23:16 | -34.82698 | -56.01207 | 84 ft | 5 kts | 272° |
| 2026-04-25 23:16 | -34.82704 | -56.01219 | 82 ft | 0 kts | 231° |
| 2026-04-25 23:17 | -34.82773 | -56.01332 | 84 ft | 47 kts | 233° |
| 2026-04-25 23:17 | -34.83101 | -56.01873 | 83 ft | 109 kts | 233° |
| 2026-04-25 23:18 | -34.83652 | -56.02779 | 86 ft | 155 kts | 233° |
| 2026-04-25 23:18 | -34.84348 | -56.03926 | 369 ft | 169 kts | 233° |
| 2026-04-25 23:18 | -34.85060 | -56.05075 | 944 ft | 171 kts | 232° |
| 2026-04-25 23:18 | -34.85627 | -56.06341 | 1499 ft | 171 kts | 258° |
| 2026-04-25 23:19 | -34.85771 | -56.07801 | 1920 ft | 181 kts | 262° |
| 2026-04-25 23:19 | -34.85994 | -56.09406 | 2133 ft | 203 kts | 259° |
| 2026-04-25 23:19 | -34.86281 | -56.11200 | 2360 ft | 228 kts | 259° |
| 2026-04-25 23:19 | -34.86604 | -56.13192 | 2733 ft | 251 kts | 259° |
| 2026-04-25 23:20 | -34.86945 | -56.15315 | 3466 ft | 258 kts | 259° |
| 2026-04-25 23:20 | -34.87287 | -56.17471 | 4310 ft | 262 kts | 259° |
| 2026-04-25 23:20 | -34.87632 | -56.19662 | 5146 ft | 265 kts | 259° |
| 2026-04-25 23:20 | -34.87981 | -56.21875 | 5994 ft | 267 kts | 259° |
| 2026-04-25 23:21 | -34.88335 | -56.24106 | 6823 ft | 269 kts | 259° |
| 2026-04-25 23:21 | -34.88689 | -56.26350 | 7621 ft | 270 kts | 259° |
| 2026-04-25 23:21 | -34.89045 | -56.28603 | 8446 ft | 272 kts | 260° |
| 2026-04-25 23:21 | -34.89402 | -56.30873 | 9261 ft | 274 kts | 261° |
| 2026-04-25 23:22 | -34.89760 | -56.33156 | 10028 ft | 276 kts | 261° |
| 2026-04-25 23:22 | -34.90127 | -56.35503 | 10409 ft | 292 kts | 261° |
| 2026-04-25 23:22 | -34.90519 | -56.38029 | 10594 ft | 313 kts | 261° |
| 2026-04-25 23:23 | -34.91347 | -56.43332 | 11831 ft | 321 kts | 261° |
| 2026-04-25 23:23 | -34.91764 | -56.46003 | 12553 ft | 322 kts | 261° |
| 2026-04-25 23:23 | -34.92182 | -56.48682 | 13290 ft | 322 kts | 261° |
| 2026-04-25 23:23 | -34.92597 | -56.51368 | 13993 ft | 323 kts | 261° |
| 2026-04-25 23:24 | -34.93015 | -56.54059 | 14598 ft | 325 kts | 261° |
| 2026-04-25 23:24 | -34.93435 | -56.56773 | 15174 ft | 327 kts | 261° |
| 2026-04-25 23:24 | -34.93859 | -56.59509 | 15757 ft | 329 kts | 261° |
| 2026-04-25 23:24 | -34.94281 | -56.62261 | 16348 ft | 331 kts | 261° |
| 2026-04-25 23:25 | -34.94707 | -56.65029 | 16945 ft | 333 kts | 261° |
| 2026-04-25 23:25 | -34.95138 | -56.67809 | 17548 ft | 335 kts | 261° |
| 2026-04-25 23:25 | -34.95572 | -56.70608 | 18161 ft | 337 kts | 261° |
| 2026-04-25 23:25 | -34.96002 | -56.73422 | 18702 ft | 339 kts | 261° |
| 2026-04-25 23:26 | -34.96431 | -56.76255 | 19247 ft | 341 kts | 261° |
| 2026-04-25 23:26 | -34.96866 | -56.79103 | 19793 ft | 343 kts | 262° |
| 2026-04-25 23:26 | -34.97300 | -56.81965 | 20341 ft | 345 kts | 262° |
| 2026-04-25 23:26 | -34.97738 | -56.84852 | 20881 ft | 347 kts | 262° |
| 2026-04-25 23:27 | -34.98165 | -56.87744 | 21494 ft | 346 kts | 264° |
| 2026-04-25 23:27 | -34.98289 | -56.90671 | 22011 ft | 346 kts | 271° |
| 2026-04-25 23:27 | -34.98280 | -56.93614 | 22515 ft | 348 kts | 271° |
| 2026-04-25 23:27 | -34.98264 | -56.96571 | 22999 ft | 351 kts | 272° |
| 2026-04-25 23:28 | -34.98244 | -56.99556 | 23478 ft | 353 kts | 272° |
| 2026-04-25 23:28 | -34.98224 | -57.02513 | 23885 ft | 355 kts | 272° |
| 2026-04-25 23:28 | -34.98207 | -57.05527 | 24307 ft | 356 kts | 272° |
| 2026-04-25 23:28 | -34.98192 | -57.08548 | 24726 ft | 357 kts | 272° |
| 2026-04-25 23:29 | -34.98177 | -57.11575 | 25129 ft | 357 kts | 272° |
| 2026-04-25 23:29 | -34.98165 | -57.14607 | 25538 ft | 358 kts | 272° |
| 2026-04-25 23:29 | -34.98154 | -57.17650 | 25935 ft | 359 kts | 272° |
| 2026-04-25 23:29 | -34.98140 | -57.20701 | 26332 ft | 360 kts | 272° |
| 2026-04-25 23:30 | -34.98125 | -57.23755 | 26721 ft | 360 kts | 272° |
| 2026-04-25 23:30 | -34.98105 | -57.26813 | 27103 ft | 361 kts | 272° |
| 2026-04-25 23:30 | -34.98085 | -57.29875 | 27484 ft | 362 kts | 272° |
| 2026-04-25 23:30 | -34.98066 | -57.32951 | 27868 ft | 363 kts | 272° |
| 2026-04-25 23:31 | -34.98050 | -57.36029 | 28241 ft | 364 kts | 272° |
| 2026-04-25 23:31 | -34.98033 | -57.39121 | 28609 ft | 365 kts | 272° |
| 2026-04-25 23:31 | -34.98013 | -57.42228 | 28910 ft | 368 kts | 272° |
| 2026-04-25 23:31 | -34.97993 | -57.45355 | 29249 ft | 369 kts | 272° |
| 2026-04-25 23:32 | -34.97970 | -57.48480 | 29741 ft | 367 kts | 272° |
| 2026-04-25 23:32 | -34.97946 | -57.51584 | 30230 ft | 365 kts | 272° |
| 2026-04-25 23:32 | -34.97919 | -57.54667 | 30668 ft | 362 kts | 272° |
| 2026-04-25 23:32 | -34.97892 | -57.57728 | 31098 ft | 360 kts | 272° |
| 2026-04-25 23:33 | -34.97865 | -57.60770 | 31529 ft | 358 kts | 272° |
| 2026-04-25 23:33 | -34.97840 | -57.63800 | 31954 ft | 356 kts | 272° |
| 2026-04-25 23:33 | -34.97815 | -57.66813 | 32384 ft | 355 kts | 272° |
| 2026-04-25 23:33 | -34.97788 | -57.69825 | 32746 ft | 355 kts | 272° |
| 2026-04-25 23:34 | -34.97758 | -57.72831 | 33154 ft | 354 kts | 272° |
| 2026-04-25 23:34 | -34.97727 | -57.75818 | 33584 ft | 352 kts | 272° |
| 2026-04-25 23:34 | -34.97696 | -57.78795 | 33921 ft | 351 kts | 272° |
| 2026-04-25 23:35 | -34.97638 | -57.84763 | 33975 ft | 353 kts | 272° |
| 2026-04-25 23:35 | -34.97344 | -57.90727 | 33976 ft | 353 kts | 281° |
| 2026-04-25 23:36 | -34.96258 | -57.96572 | 33978 ft | 354 kts | 279° |
| 2026-04-25 23:36 | -34.95553 | -58.02507 | 33974 ft | 354 kts | 277° |
| 2026-04-25 23:37 | -34.94873 | -58.08449 | 33964 ft | 354 kts | 278° |
| 2026-04-25 23:37 | -34.94116 | -58.14383 | 33948 ft | 354 kts | 278° |
| 2026-04-25 23:38 | -34.93306 | -58.20311 | 33981 ft | 355 kts | 279° |
| 2026-04-25 23:38 | -34.92490 | -58.26237 | 33978 ft | 355 kts | 278° |
| 2026-04-25 23:39 | -34.91690 | -58.32135 | 33978 ft | 355 kts | 278° |
| 2026-04-25 23:39 | -34.90888 | -58.38075 | 33963 ft | 355 kts | 278° |
| 2026-04-25 23:40 | -34.90084 | -58.44004 | 33984 ft | 355 kts | 278° |
| 2026-04-25 23:40 | -34.89272 | -58.49928 | 34003 ft | 355 kts | 278° |
| 2026-04-25 23:41 | -34.88459 | -58.55859 | 33997 ft | 355 kts | 278° |
| 2026-04-25 23:41 | -34.87645 | -58.61790 | 33993 ft | 355 kts | 278° |
| 2026-04-25 23:42 | -34.86826 | -58.67717 | 33987 ft | 355 kts | 278° |
| 2026-04-25 23:42 | -34.85999 | -58.73642 | 33982 ft | 355 kts | 279° |
| 2026-04-25 23:43 | -34.85172 | -58.79569 | 33978 ft | 355 kts | 278° |
| 2026-04-25 23:43 | -34.84342 | -58.85490 | 33977 ft | 355 kts | 279° |
| 2026-04-25 23:44 | -34.83513 | -58.91409 | 33952 ft | 354 kts | 278° |
| 2026-04-25 23:44 | -34.82681 | -58.97311 | 33963 ft | 353 kts | 278° |
| 2026-04-25 23:45 | -34.81851 | -59.03199 | 33981 ft | 353 kts | 278° |
| 2026-04-25 23:45 | -34.81014 | -59.09091 | 33979 ft | 353 kts | 279° |
| 2026-04-25 23:46 | -34.80173 | -59.14981 | 33978 ft | 353 kts | 278° |
| 2026-04-25 23:46 | -34.79335 | -59.20873 | 33976 ft | 353 kts | 278° |
| 2026-04-25 23:47 | -34.78495 | -59.26761 | 33981 ft | 354 kts | 279° |
| 2026-04-25 23:47 | -34.77646 | -59.32655 | 34002 ft | 354 kts | 279° |
| 2026-04-25 23:48 | -34.76790 | -59.38563 | 33988 ft | 355 kts | 279° |
| 2026-04-25 23:48 | -34.75930 | -59.44474 | 33983 ft | 355 kts | 279° |
| 2026-04-25 23:49 | -34.75070 | -59.50397 | 33983 ft | 356 kts | 279° |
| 2026-04-25 23:49 | -34.74205 | -59.56320 | 33982 ft | 356 kts | 279° |
| 2026-04-25 23:50 | -34.73335 | -59.62251 | 33990 ft | 356 kts | 279° |
| 2026-04-25 23:50 | -34.72461 | -59.68183 | 33986 ft | 357 kts | 279° |
| 2026-04-25 23:51 | -34.71586 | -59.74124 | 33990 ft | 357 kts | 279° |
| 2026-04-25 23:51 | -34.70708 | -59.80062 | 33989 ft | 357 kts | 279° |
| 2026-04-25 23:52 | -34.69824 | -59.86004 | 33991 ft | 357 kts | 279° |
| 2026-04-25 23:52 | -34.68935 | -59.91949 | 33970 ft | 358 kts | 279° |
| 2026-04-25 23:53 | -34.68043 | -59.97890 | 33980 ft | 357 kts | 279° |
| 2026-04-25 23:53 | -34.67155 | -60.03831 | 33990 ft | 357 kts | 279° |
| 2026-04-25 23:54 | -34.66258 | -60.09764 | 33995 ft | 357 kts | 279° |
| 2026-04-25 23:54 | -34.65357 | -60.15702 | 33995 ft | 357 kts | 279° |
| 2026-04-25 23:55 | -34.64610 | -60.20631 | 34002 ft | 357 kts | 279° |
| 2026-04-25 23:55 | -34.63714 | -60.26565 | 34000 ft | 357 kts | 279° |
| 2026-04-25 23:56 | -34.62808 | -60.32500 | 34001 ft | 357 kts | 279° |
| 2026-04-25 23:56 | -34.61899 | -60.38430 | 34000 ft | 357 kts | 279° |
| 2026-04-25 23:57 | -34.60991 | -60.44365 | 34001 ft | 357 kts | 279° |
| 2026-04-25 23:57 | -34.60079 | -60.50291 | 33986 ft | 357 kts | 279° |
| 2026-04-25 23:58 | -34.59162 | -60.56202 | 33997 ft | 356 kts | 279° |
| 2026-04-25 23:58 | -34.58245 | -60.62110 | 34002 ft | 356 kts | 279° |
| 2026-04-25 23:59 | -34.57326 | -60.68004 | 34006 ft | 356 kts | 279° |
| 2026-04-25 23:59 | -34.56405 | -60.73904 | 34006 ft | 356 kts | 279° |
| 2026-04-26 00:00 | -34.55327 | -60.80750 | 34023 ft | 356 kts | 279° |
| 2026-04-26 00:00 | -34.54547 | -60.85692 | 34017 ft | 356 kts | 279° |
| 2026-04-26 00:01 | -34.53616 | -60.91593 | 34016 ft | 356 kts | 279° |
| 2026-04-26 00:01 | -34.52681 | -60.97490 | 34012 ft | 356 kts | 279° |
| 2026-04-26 00:02 | -34.51744 | -61.03384 | 33982 ft | 356 kts | 279° |
| 2026-04-26 00:02 | -34.50813 | -61.09228 | 33999 ft | 355 kts | 279° |
| 2026-04-26 00:03 | -34.49869 | -61.15145 | 34006 ft | 355 kts | 279° |
| 2026-04-26 00:03 | -34.48931 | -61.20983 | 34008 ft | 355 kts | 279° |
| 2026-04-26 00:04 | -34.47982 | -61.26855 | 34011 ft | 355 kts | 279° |
| 2026-04-26 00:04 | -34.47039 | -61.32726 | 34012 ft | 355 kts | 279° |
| 2026-04-26 00:05 | -34.46090 | -61.38594 | 34026 ft | 355 kts | 279° |
| 2026-04-26 00:05 | -34.45137 | -61.44462 | 34023 ft | 355 kts | 279° |
| 2026-04-26 00:06 | -34.44180 | -61.50329 | 34021 ft | 355 kts | 279° |
| 2026-04-26 00:06 | -34.43227 | -61.56197 | 33982 ft | 355 kts | 279° |
| 2026-04-26 00:07 | -34.42269 | -61.62053 | 34007 ft | 354 kts | 279° |
| 2026-04-26 00:07 | -34.41300 | -61.67897 | 34013 ft | 354 kts | 279° |
| 2026-04-26 00:08 | -34.40332 | -61.73738 | 34014 ft | 354 kts | 279° |
| 2026-04-26 00:08 | -34.39367 | -61.79570 | 34016 ft | 353 kts | 279° |
| 2026-04-26 00:09 | -34.38404 | -61.85407 | 34021 ft | 353 kts | 279° |
| 2026-04-26 00:09 | -34.37431 | -61.91232 | 34023 ft | 353 kts | 279° |
| 2026-04-26 00:10 | -34.36455 | -61.97062 | 34030 ft | 353 kts | 279° |
| 2026-04-26 00:10 | -34.35479 | -62.02889 | 34027 ft | 354 kts | 279° |
| 2026-04-26 00:11 | -34.34502 | -62.08721 | 33984 ft | 354 kts | 279° |
| 2026-04-26 00:11 | -34.33516 | -62.14541 | 34004 ft | 353 kts | 279° |
| 2026-04-26 00:12 | -34.32529 | -62.20358 | 34014 ft | 353 kts | 279° |
| 2026-04-26 00:12 | -34.31548 | -62.26165 | 34029 ft | 352 kts | 279° |
| 2026-04-26 00:13 | -34.30559 | -62.31972 | 34030 ft | 353 kts | 279° |
| 2026-04-26 00:13 | -34.29568 | -62.37780 | 34029 ft | 353 kts | 279° |
| 2026-04-26 00:14 | -34.28574 | -62.43585 | 34025 ft | 353 kts | 279° |
| 2026-04-26 00:14 | -34.27576 | -62.49388 | 34025 ft | 353 kts | 279° |
| 2026-04-26 00:15 | -34.26581 | -62.55198 | 34040 ft | 353 kts | 279° |
| 2026-04-26 00:15 | -34.25586 | -62.60968 | 34035 ft | 353 kts | 279° |
| 2026-04-26 00:16 | -34.24577 | -62.66774 | 33990 ft | 353 kts | 279° |
| 2026-04-26 00:16 | -34.23569 | -62.72577 | 34015 ft | 352 kts | 279° |
| 2026-04-26 00:17 | -34.22554 | -62.78406 | 34027 ft | 352 kts | 279° |
| 2026-04-26 00:17 | -34.21541 | -62.84193 | 34039 ft | 352 kts | 279° |
| 2026-04-26 00:18 | -34.20525 | -62.89983 | 34039 ft | 352 kts | 279° |
| 2026-04-26 00:18 | -34.19513 | -62.95770 | 34040 ft | 352 kts | 279° |
| 2026-04-26 00:19 | -34.18502 | -63.01520 | 34037 ft | 352 kts | 279° |
| 2026-04-26 00:19 | -34.17474 | -63.07307 | 34037 ft | 352 kts | 279° |
| 2026-04-26 00:20 | -34.16445 | -63.13089 | 34040 ft | 352 kts | 279° |
| 2026-04-26 00:20 | -34.15418 | -63.18879 | 34031 ft | 353 kts | 279° |
| 2026-04-26 00:21 | -34.14395 | -63.24663 | 34002 ft | 352 kts | 279° |
| 2026-04-26 00:21 | -34.13358 | -63.30437 | 34015 ft | 352 kts | 279° |
| 2026-04-26 00:22 | -34.12317 | -63.36251 | 34028 ft | 352 kts | 279° |
| 2026-04-26 00:22 | -34.11283 | -63.41981 | 34032 ft | 352 kts | 279° |
| 2026-04-26 00:23 | -34.10238 | -63.47748 | 34042 ft | 352 kts | 279° |
| 2026-04-26 00:23 | -34.09196 | -63.53515 | 34041 ft | 352 kts | 279° |
| 2026-04-26 00:24 | -34.08155 | -63.59286 | 34043 ft | 352 kts | 279° |
| 2026-04-26 00:24 | -34.07101 | -63.65050 | 34041 ft | 352 kts | 279° |
| 2026-04-26 00:25 | -34.06043 | -63.70821 | 34043 ft | 352 kts | 279° |
| 2026-04-26 00:25 | -34.04989 | -63.76585 | 34051 ft | 352 kts | 279° |
| 2026-04-26 00:26 | -34.03939 | -63.82352 | 34010 ft | 352 kts | 279° |
| 2026-04-26 00:26 | -34.02882 | -63.88109 | 34019 ft | 352 kts | 279° |
| 2026-04-26 00:27 | -34.01818 | -63.93866 | 34032 ft | 352 kts | 279° |
| 2026-04-26 00:27 | -34.00752 | -63.99617 | 34037 ft | 352 kts | 279° |
| 2026-04-26 00:28 | -33.99690 | -64.05327 | 34053 ft | 351 kts | 279° |
| 2026-04-26 00:28 | -33.98619 | -64.11074 | 34050 ft | 352 kts | 279° |
| 2026-04-26 00:29 | -33.97546 | -64.16819 | 34047 ft | 352 kts | 279° |
| 2026-04-26 00:29 | -33.96477 | -64.22566 | 34046 ft | 351 kts | 279° |
| 2026-04-26 00:30 | -33.95399 | -64.28309 | 34048 ft | 351 kts | 279° |
| 2026-04-26 00:30 | -33.94320 | -64.34048 | 34047 ft | 351 kts | 279° |
| 2026-04-26 00:31 | -33.93241 | -64.39785 | 34012 ft | 351 kts | 279° |
| 2026-04-26 00:31 | -33.92154 | -64.45521 | 34021 ft | 351 kts | 279° |
| 2026-04-26 00:32 | -33.91072 | -64.51254 | 34025 ft | 351 kts | 279° |
| 2026-04-26 00:32 | -33.89634 | -64.59890 | 34027 ft | 351 kts | 277° |
| 2026-04-26 00:33 | -33.88715 | -64.65650 | 34040 ft | 351 kts | 277° |
| 2026-04-26 00:33 | -33.87781 | -64.71408 | 34050 ft | 351 kts | 277° |
| 2026-04-26 00:34 | -33.86837 | -64.77167 | 34047 ft | 351 kts | 277° |
| 2026-04-26 00:34 | -33.85883 | -64.82915 | 34055 ft | 350 kts | 278° |
| 2026-04-26 00:35 | -33.84923 | -64.88664 | 34049 ft | 350 kts | 278° |
| 2026-04-26 00:35 | -33.83963 | -64.94411 | 34056 ft | 350 kts | 278° |
| 2026-04-26 00:36 | -33.83004 | -65.00159 | 34062 ft | 350 kts | 277° |
| 2026-04-26 00:36 | -33.82041 | -65.05904 | 34059 ft | 351 kts | 278° |
| 2026-04-26 00:37 | -33.81073 | -65.11651 | 34061 ft | 351 kts | 278° |
| 2026-04-26 00:37 | -33.80100 | -65.17396 | 34050 ft | 351 kts | 278° |
| 2026-04-26 00:38 | -33.79131 | -65.23142 | 34061 ft | 351 kts | 278° |
| 2026-04-26 00:38 | -33.78155 | -65.28888 | 34060 ft | 351 kts | 278° |
| 2026-04-26 00:39 | -33.77345 | -65.33660 | 34066 ft | 351 kts | 278° |
| 2026-04-26 00:39 | -33.76369 | -65.39404 | 34059 ft | 351 kts | 278° |
| 2026-04-26 00:40 | -33.75227 | -65.46076 | 34065 ft | 351 kts | 278° |
| 2026-04-26 00:40 | -33.74239 | -65.51811 | 34084 ft | 351 kts | 278° |
| 2026-04-26 00:41 | -33.73410 | -65.56617 | 34073 ft | 351 kts | 278° |
| 2026-04-26 00:41 | -33.72261 | -65.63280 | 34035 ft | 350 kts | 278° |
| 2026-04-26 00:42 | -33.71428 | -65.68077 | 34040 ft | 350 kts | 278° |
| 2026-04-26 00:42 | -33.70430 | -65.73806 | 34045 ft | 350 kts | 278° |
| 2026-04-26 00:43 | -33.69431 | -65.79537 | 34046 ft | 351 kts | 278° |
| 2026-04-26 00:43 | -33.68439 | -65.85227 | 34052 ft | 351 kts | 278° |
| 2026-04-26 00:44 | -33.67441 | -65.90954 | 34057 ft | 351 kts | 278° |
| 2026-04-26 00:44 | -33.66439 | -65.96686 | 34061 ft | 351 kts | 278° |
| 2026-04-26 00:45 | -33.65428 | -66.02431 | 34049 ft | 352 kts | 278° |
| 2026-04-26 00:45 | -33.64414 | -66.08180 | 34048 ft | 353 kts | 278° |
| 2026-04-26 00:46 | -33.63391 | -66.13938 | 34047 ft | 353 kts | 278° |
| 2026-04-26 00:46 | -33.62366 | -66.19700 | 34049 ft | 353 kts | 278° |